Aérodrome :
LOGIN :

S'inscrire | Disclaimer

   EN    FR    IT 

 










Légende :    VFR   VFR Marginal   IFR   IFR Intensif   IFR Très Intensif
Visi : 
Plafond : 
>= 8 km
>= 3000ft
5 à 8 km
1000 à 3000 ft
1500m à 5 km
500 à 1000 ft
800 à 1500m
200 à 500 ft
< 800m
< 200 ft
Symboles :   Orages  Brouillard  Fortes neiges  Fortes précipitations  Vent > 20 kt
SIGMETs :   Divers  Orages  Givrage  Turbulence  Onde Orograph.  Cendres Volcan.







- Altitude de l'aérodrome : 65 ft
- Code IATA : PMO


LICJ - Palermo Punta Raisi

METARs EXPIRÉS :
  • 290520Z 24009KT CAVOK 25/17 Q1010
  • 290450Z 23010KT CAVOK 25/16 Q1009
  • 290420Z 29004KT CAVOK 24/17 Q1009

TAF TAF LICJ
Valide du 29 à 06h jusqu'au 30 à 06h UTC


290500Z 2906/3006 25008KT 9999 FEW030
BECMG 2909/2911 01010KT
BECMG 2918/2920 VRB05KT
Pas de NOTAMs connus pour ce terrain.
1 SIGMET publié pour la FIR Roma (LIRR) :
 
Turbulence forte
LIRR SIGMET 2 VALID 290500/290900 LIIB- LIRR ROMA FIR SEV TURB FCST N OF LINE N3943 E00742 - N4113 E01520 FL200/360 STNR NC=



MET'MAP, la Météo Aéronautique d'un coup d'oeil ! - Copyright ORBIFLY Décembre 2007 - Disclaimer

ORBIFLY MET'MAP TEAM :

Programmation & Développement : Alexandra Zaïnal
Conception & Développement : Baudouin d'Aumeries
Co-Programmation & Développement : Marc-Olivier Méhu
Soutien technique & logistique : Manuel Goepfert

Contact : metmap@orbifly.com




SOURCES & CREDITS :

   NOAA